Time;durP1;ratioP1;P1;durP2;ratioP2;P2;SDS_P1;SDS_P2;PMS_P1;PMS_P2;Temp;Humidity;BMP_temperature;BMP_pressure;BME280_temperature;BME280_humidity;BME280_pressure;Samples;Min_cycle;Max_cycle;Signal;HPM_P1;HPM_P2
2021/12/29 00:00:35;;;;;;;25.30;13.82;;;9.90;74.90;;;;;;5013238;28;20033;-24
2021/12/29 00:03:03;;;;;;;41.35;21.38;;;9.90;74.90;;;;;;5013146;28;20482;-26
2021/12/29 00:05:30;;;;;;;35.92;18.55;;;9.90;74.90;;;;;;5013127;28;20421;-25
2021/12/29 00:07:56;;;;;;;27.15;13.18;;;9.90;75.00;;;;;;5013534;28;20041;-25
2021/12/29 00:10:24;;;;;;;22.83;11.73;;;9.90;74.90;;;;;;5013140;28;20480;-25
2021/12/29 00:12:53;;;;;;;41.53;22.98;;;9.90;74.90;;;;;;5013558;28;20489;-25
2021/12/29 00:15:21;;;;;;;22.27;11.40;;;9.90;74.80;;;;;;5012878;28;20116;-24
2021/12/29 00:17:48;;;;;;;46.95;24.38;;;9.90;74.80;;;;;;5015123;28;20097;-25
2021/12/29 00:20:18;;;;;;;31.42;16.10;;;9.90;74.80;;;;;;5017005;28;20113;-32
2021/12/29 00:22:50;;;;;;;38.40;21.65;;;9.90;74.80;;;;;;5016639;28;20022;-26
2021/12/29 00:25:16;;;;;;;22.15;11.88;;;9.90;74.90;;;;;;5016820;28;20500;-25
2021/12/29 00:27:42;;;;;;;23.02;12.35;;;9.90;74.90;;;;;;5016728;28;20105;-25
2021/12/29 00:30:11;;;;;;;33.72;18.88;;;9.90;74.90;;;;;;5016874;28;20033;-24
2021/12/29 00:32:37;;;;;;;36.30;19.88;;;9.90;74.90;;;;;;5016643;28;20022;-24
2021/12/29 00:35:05;;;;;;;33.53;17.88;;;9.90;74.90;;;;;;5016524;28;20482;-24
2021/12/29 00:37:31;;;;;;;22.10;12.18;;;9.90;75.10;;;;;;5016478;28;20101;-24
2021/12/29 00:39:59;;;;;;;21.55;11.45;;;9.90;74.90;;;;;;5016732;28;20036;-24
2021/12/29 00:42:25;;;;;;;26.15;13.27;;;9.90;74.90;;;;;;5016559;28;20096;-24
2021/12/29 00:44:51;;;;;;;19.52;10.65;;;9.90;74.90;;;;;;5016565;28;20478;-26
2021/12/29 00:47:22;;;;;;;39.53;21.02;;;9.90;74.80;;;;;;5016307;28;20481;-25
2021/12/29 00:49:48;;;;;;;53.47;28.40;;;9.90;74.80;;;;;;5016147;28;20070;-25
2021/12/29 00:52:14;;;;;;;20.27;10.63;;;9.90;74.90;;;;;;5016109;28;20041;-28
2021/12/29 00:54:43;;;;;;;31.02;16.88;;;9.90;74.90;;;;;;5016792;28;20075;-26
2021/12/29 00:57:11;;;;;;;26.75;15.15;;;9.90;74.90;;;;;;5015058;28;20040;-26
2021/12/29 00:59:38;;;;;;;24.10;12.40;;;9.90;74.90;;;;;;5014851;28;20029;-26
2021/12/29 01:02:05;;;;;;;34.60;20.75;;;9.90;74.90;;;;;;5016065;28;20490;-26
2021/12/29 01:04:31;;;;;;;41.08;23.35;;;9.90;74.80;;;;;;5014492;28;20064;-25
2021/12/29 01:06:57;;;;;;;28.00;16.35;;;9.90;74.80;;;;;;5015163;28;20026;-26
2021/12/29 01:09:25;;;;;;;38.30;22.17;;;9.90;74.80;;;;;;5015904;28;20030;-25
2021/12/29 01:11:55;;;;;;;26.15;14.63;;;9.90;74.80;;;;;;5016005;28;20032;-24
2021/12/29 01:14:23;;;;;;;27.10;13.90;;;9.90;74.80;;;;;;5015542;28;20030;-26
2021/12/29 01:16:49;;;;;;;23.45;12.23;;;9.90;74.80;;;;;;5015695;28;20048;-26
2021/12/29 01:19:21;;;;;;;26.38;13.23;;;9.80;74.80;;;;;;5015750;28;20033;-25
2021/12/29 01:21:52;;;;;;;21.23;12.00;;;9.90;74.80;;;;;;5016255;28;20026;-25
2021/12/29 01:24:21;;;;;;;30.77;18.13;;;9.90;74.90;;;;;;5014513;28;20026;-24
2021/12/29 01:26:48;;;;;;;29.02;16.20;;;9.90;74.90;;;;;;5015898;28;20022;-24
2021/12/29 01:29:14;;;;;;;43.05;24.02;;;9.80;74.90;;;;;;5015276;28;20038;-25
2021/12/29 01:31:43;;;;;;;34.33;17.27;;;9.80;75.00;;;;;;5015693;28;20033;-25
2021/12/29 01:34:13;;;;;;;51.88;28.45;;;9.80;75.00;;;;;;5015729;28;20036;-25
2021/12/29 01:36:40;;;;;;;40.38;22.60;;;9.80;75.00;;;;;;5016076;28;20037;-24
2021/12/29 01:39:10;;;;;;;40.28;20.98;;;9.80;75.10;;;;;;5014119;28;20065;-25
2021/12/29 01:41:37;;;;;;;28.48;13.23;;;9.80;75.10;;;;;;5016031;28;20029;-26
2021/12/29 01:44:05;;;;;;;42.80;22.42;;;9.80;75.10;;;;;;5015225;28;20100;-24
2021/12/29 01:46:31;;;;;;;22.73;11.45;;;9.70;75.10;;;;;;5015027;28;20081;-25
2021/12/29 01:48:57;;;;;;;27.90;14.82;;;9.80;75.10;;;;;;5015120;28;20446;-25
2021/12/29 01:51:23;;;;;;;30.45;15.68;;;9.80;75.20;;;;;;5015328;28;20101;-26
2021/12/29 01:54:02;;;;;;;31.77;15.48;;;9.80;75.10;;;;;;5015040;28;20041;-25
2021/12/29 01:56:31;;;;;;;29.05;13.25;;;9.80;75.10;;;;;;5014766;28;20045;-26
2021/12/29 01:58:56;;;;;;;30.02;15.98;;;9.80;75.20;;;;;;5015770;28;20033;-26
2021/12/29 02:01:23;;;;;;;32.83;16.55;;;9.90;75.20;;;;;;5015230;28;20117;-26
2021/12/29 02:03:52;;;;;;;23.58;12.20;;;9.80;75.10;;;;;;5014972;28;20025;-24
2021/12/29 02:06:18;;;;;;;37.08;19.85;;;9.80;75.10;;;;;;5014949;28;20026;-24
2021/12/29 02:08:44;;;;;;;45.95;23.42;;;9.80;75.20;;;;;;5015054;28;20037;-26
2021/12/29 02:11:10;;;;;;;42.13;21.73;;;9.80;75.10;;;;;;5015048;28;20041;-27
2021/12/29 02:13:38;;;;;;;31.27;16.40;;;9.80;75.30;;;;;;5015026;28;20040;-24
2021/12/29 02:16:04;;;;;;;52.78;27.52;;;9.70;75.40;;;;;;5014507;28;20034;-24
2021/12/29 02:18:31;;;;;;;54.35;28.50;;;9.70;75.60;;;;;;5014701;28;20033;-25
2021/12/29 02:20:57;;;;;;;28.60;13.77;;;9.70;75.50;;;;;;5015221;28;20104;-25
2021/12/29 02:23:46;;;;;;;49.63;24.48;;;9.70;75.50;;;;;;5014473;28;20463;-24
2021/12/29 02:26:13;;;;;;;41.70;20.48;;;9.70;75.50;;;;;;5014498;28;20076;-25
2021/12/29 02:28:43;;;;;;;39.78;21.02;;;9.70;75.50;;;;;;5014407;28;20386;-25
2021/12/29 02:31:09;;;;;;;44.08;22.92;;;9.70;75.50;;;;;;5014663;28;20053;-24
2021/12/29 02:33:35;;;;;;;41.20;22.55;;;9.70;75.50;;;;;;5014665;28;20029;-24
2021/12/29 02:36:04;;;;;;;36.50;19.40;;;9.70;75.50;;;;;;5014796;28;20420;-25
2021/12/29 02:38:34;;;;;;;39.78;21.02;;;9.70;75.50;;;;;;5014057;28;20418;-25
2021/12/29 02:41:06;;;;;;;26.80;13.25;;;9.70;75.60;;;;;;5013704;28;20033;-26
2021/12/29 02:43:36;;;;;;;41.47;21.42;;;9.60;75.50;;;;;;5014499;28;20030;-24
2021/12/29 02:46:06;;;;;;;30.13;14.52;;;9.60;75.60;;;;;;5014402;28;20108;-25
2021/12/29 02:48:37;;;;;;;25.52;13.90;;;9.60;75.60;;;;;;5013701;28;20050;-24
2021/12/29 02:51:07;;;;;;;34.58;18.23;;;9.60;75.50;;;;;;5014089;28;20022;-27
2021/12/29 02:53:34;;;;;;;25.13;13.80;;;9.60;75.40;;;;;;5014603;28;20426;-26
2021/12/29 02:55:59;;;;;;;27.52;15.00;;;9.60;75.40;;;;;;5014303;28;20033;-24
2021/12/29 02:58:26;;;;;;;33.53;17.48;;;9.60;75.40;;;;;;5013702;28;20033;-24
2021/12/29 03:00:55;;;;;;;54.20;26.50;;;9.60;75.30;;;;;;5014066;28;20092;-26
2021/12/29 03:03:25;;;;;;;42.90;20.85;;;9.50;75.50;;;;;;5014082;28;20022;-27
2021/12/29 03:05:52;;;;;;;49.30;24.75;;;9.50;75.40;;;;;;5013887;28;20022;-25
2021/12/29 03:08:19;;;;;;;52.40;25.02;;;9.50;75.60;;;;;;5013898;28;20026;-24
2021/12/29 03:10:47;;;;;;;44.78;22.48;;;9.40;75.60;;;;;;5014032;28;20026;-24
2021/12/29 03:13:13;;;;;;;45.05;21.60;;;9.40;75.80;;;;;;5013730;28;20026;-25
2021/12/29 03:15:40;;;;;;;29.63;15.73;;;9.40;75.80;;;;;;5013681;28;20029;-27
2021/12/29 03:18:07;;;;;;;32.22;17.20;;;9.30;75.80;;;;;;5013604;28;20064;-26
2021/12/29 03:20:34;;;;;;;27.08;13.43;;;9.30;75.70;;;;;;5013572;28;20109;-25
2021/12/29 03:23:01;;;;;;;24.50;11.45;;;9.30;75.70;;;;;;5012429;28;20022;-24
2021/12/29 03:25:27;;;;;;;32.05;16.35;;;9.20;75.70;;;;;;5013859;28;20046;-26
2021/12/29 03:28:01;;;;;;;53.60;26.67;;;9.20;75.60;;;;;;5013744;28;20053;-25
2021/12/29 03:30:33;;;;;;;35.53;18.70;;;9.20;75.70;;;;;;5013334;28;20462;-24
2021/12/29 03:33:06;;;;;;;29.20;15.40;;;9.20;75.70;;;;;;5012334;28;20117;-25
2021/12/29 03:35:41;;;;;;;40.63;19.58;;;9.10;75.80;;;;;;5013675;28;20042;-26
2021/12/29 03:38:12;;;;;;;27.60;13.60;;;9.10;75.90;;;;;;5013985;28;20450;-26
2021/12/29 03:40:40;;;;;;;30.48;15.02;;;9.10;75.80;;;;;;5013411;28;20022;-25
2021/12/29 03:43:08;;;;;;;30.80;13.80;;;9.10;75.80;;;;;;5013717;28;20030;-26
2021/12/29 03:45:37;;;;;;;25.30;12.73;;;9.10;75.80;;;;;;5013564;28;20033;-26
2021/12/29 03:48:09;;;;;;;45.72;20.98;;;9.10;75.80;;;;;;5013287;28;20103;-24
2021/12/29 03:50:36;;;;;;;48.40;22.05;;;9.00;75.90;;;;;;5013447;28;20068;-26
2021/12/29 03:53:03;;;;;;;35.97;16.70;;;9.00;76.00;;;;;;5016026;28;20156;-25
2021/12/29 03:55:29;;;;;;;39.70;18.63;;;8.90;76.10;;;;;;5017561;28;20030;-24
2021/12/29 03:57:55;;;;;;;33.13;16.08;;;8.90;76.10;;;;;;5017231;28;20543;-24
2021/12/29 04:00:22;;;;;;;23.42;10.98;;;8.90;76.00;;;;;;5017223;28;20037;-26
2021/12/29 04:02:48;;;;;;;61.15;26.70;;;8.90;76.10;;;;;;5017505;28;20038;-25
2021/12/29 04:05:19;;;;;;;43.40;21.55;;;8.80;76.30;;;;;;5017425;28;20042;-25
2021/12/29 04:07:46;;;;;;;56.33;23.10;;;8.80;76.50;;;;;;5017452;28;20018;-26
2021/12/29 04:10:13;;;;;;;36.90;17.23;;;8.80;76.40;;;;;;5017942;28;20100;-24
2021/12/29 04:12:41;;;;;;;23.30;12.10;;;8.80;76.50;;;;;;5017039;28;20026;-25
2021/12/29 04:15:11;;;;;;;24.20;11.73;;;8.80;76.50;;;;;;5017487;28;20072;-24
2021/12/29 04:17:40;;;;;;;44.20;20.40;;;8.80;76.40;;;;;;5015830;28;20374;-25
2021/12/29 04:22:52;;;;;;;26.85;13.40;;;8.80;76.60;;;;;;5017188;28;20049;-26
2021/12/29 04:25:23;;;;;;;29.90;13.77;;;8.70;76.60;;;;;;5017003;28;20486;-23
2021/12/29 04:27:51;;;;;;;43.15;18.95;;;8.70;76.40;;;;;;5016745;28;20018;-26
2021/12/29 04:30:18;;;;;;;33.63;15.18;;;8.70;76.60;;;;;;5016383;28;20030;-25
2021/12/29 04:32:44;;;;;;;35.00;17.88;;;8.70;76.80;;;;;;5016924;28;20040;-25
2021/12/29 04:35:10;;;;;;;55.80;23.15;;;8.70;77.10;;;;;;5016582;28;20104;-26
2021/12/29 04:37:37;;;;;;;51.80;21.00;;;8.60;77.10;;;;;;5016621;28;20033;-24
2021/12/29 04:40:06;;;;;;;63.15;20.77;;;8.60;77.30;;;;;;5016683;28;20025;-26
2021/12/29 04:42:33;;;;;;;25.33;12.88;;;8.60;77.50;;;;;;5014599;28;20099;-25
2021/12/29 04:44:59;;;;;;;46.05;20.08;;;8.50;77.40;;;;;;5016414;28;20087;-26
2021/12/29 04:47:29;;;;;;;29.55;13.35;;;8.50;77.30;;;;;;5016758;28;20037;-25
2021/12/29 04:50:00;;;;;;;37.20;18.52;;;8.50;77.30;;;;;;5016154;28;20057;-25
2021/12/29 04:52:28;;;;;;;42.15;19.80;;;8.40;77.50;;;;;;5016613;28;20405;-24
2021/12/29 04:54:56;;;;;;;35.70;17.17;;;8.40;77.60;;;;;;5016617;28;20041;-25
2021/12/29 04:57:22;;;;;;;54.30;21.10;;;8.40;77.80;;;;;;5016404;28;20108;-26
2021/12/29 04:59:48;;;;;;;42.85;18.90;;;8.40;77.50;;;;;;5016006;28;20504;-24
2021/12/29 05:02:14;;;;;;;29.73;11.30;;;8.30;77.70;;;;;;5015966;28;20026;-26
2021/12/29 05:04:55;;;;;;;43.45;14.43;;;8.30;77.70;;;;;;5015927;28;20494;-25
2021/12/29 05:10:07;;;;;;;39.67;15.63;;;8.30;77.70;;;;;;5016387;28;20524;-25
2021/12/29 05:12:33;;;;;;;88.82;23.35;;;8.30;78.10;;;;;;5015772;28;20500;-24
2021/12/29 05:14:59;;;;;;;68.00;20.52;;;8.30;77.90;;;;;;5014641;28;20026;-26
2021/12/29 05:17:25;;;;;;;25.58;11.40;;;8.30;77.80;;;;;;5014492;28;20037;-24
2021/12/29 05:19:51;;;;;;;41.55;12.50;;;8.20;78.00;;;;;;5016030;28;20418;-27
2021/12/29 05:22:18;;;;;;;25.83;12.32;;;8.20;78.00;;;;;;5015462;28;20026;-25
2021/12/29 05:24:44;;;;;;;17.38;9.25;;;8.20;77.80;;;;;;5015664;28;20030;-25
2021/12/29 05:27:10;;;;;;;24.33;10.30;;;8.20;77.80;;;;;;5016130;28;20486;-27
2021/12/29 05:29:36;;;;;;;39.50;13.10;;;8.20;77.70;;;;;;5015846;28;20061;-27
2021/12/29 05:32:03;;;;;;;28.92;11.88;;;8.20;77.70;;;;;;5015842;28;20080;-24
2021/12/29 05:34:28;;;;;;;52.10;17.60;;;8.30;77.60;;;;;;5015596;28;20025;-24
2021/12/29 05:36:54;;;;;;;72.70;21.00;;;8.30;77.90;;;;;;5015358;28;20046;-25
2021/12/29 05:39:20;;;;;;;86.68;23.00;;;8.20;78.00;;;;;;5016004;28;20030;-24
2021/12/29 05:41:46;;;;;;;39.10;13.88;;;8.20;78.30;;;;;;5014158;28;20490;-24
2021/12/29 05:44:12;;;;;;;80.20;20.80;;;8.20;78.00;;;;;;5015224;28;20054;-27
2021/12/29 05:46:38;;;;;;;19.20;9.77;;;8.20;78.00;;;;;;5015885;28;20113;-26
2021/12/29 05:49:04;;;;;;;19.38;9.68;;;8.10;77.90;;;;;;5010254;28;20107;-25
2021/12/29 05:51:30;;;;;;;14.18;6.63;;;8.10;77.90;;;;;;5015606;28;20034;-25
2021/12/29 05:53:56;;;;;;;35.25;11.32;;;8.10;77.90;;;;;;5015457;28;20037;-25
2021/12/29 05:56:22;;;;;;;96.68;22.88;;;8.20;77.90;;;;;;5015466;28;20030;-24
2021/12/29 05:58:48;;;;;;;43.92;16.90;;;8.20;78.00;;;;;;5014921;28;20116;-24
2021/12/29 06:01:14;;;;;;;37.47;14.00;;;8.10;78.10;;;;;;5014847;28;20026;-24
2021/12/29 06:03:40;;;;;;;65.75;20.10;;;8.10;77.80;;;;;;5015202;28;20030;-23
2021/12/29 06:06:06;;;;;;;25.73;12.55;;;8.10;77.80;;;;;;5014852;28;20025;-24
2021/12/29 06:08:32;;;;;;;114.22;24.00;;;8.10;77.80;;;;;;5014737;28;20030;-25
2021/12/29 06:10:58;;;;;;;38.78;15.95;;;8.10;77.80;;;;;;5014769;28;20121;-25
2021/12/29 06:13:24;;;;;;;24.00;11.77;;;8.10;78.00;;;;;;5014801;28;20101;-24
2021/12/29 06:15:49;;;;;;;123.15;23.70;;;8.10;77.80;;;;;;5013675;28;20065;-26
2021/12/29 06:18:15;;;;;;;46.58;19.00;;;8.10;77.90;;;;;;5014773;28;20026;-26
2021/12/29 06:20:42;;;;;;;51.20;17.42;;;8.10;78.20;;;;;;5015116;28;20493;-25
2021/12/29 06:23:12;;;;;;;61.30;18.15;;;8.10;78.20;;;;;;5014522;28;20482;-26
2021/12/29 06:25:39;;;;;;;22.48;9.80;;;8.10;78.10;;;;;;5014882;28;20106;-25
2021/12/29 06:28:06;;;;;;;22.25;10.77;;;8.00;78.10;;;;;;5014975;28;20080;-23
2021/12/29 06:30:32;;;;;;;110.45;22.40;;;8.10;78.00;;;;;;5014262;28;20363;-25
2021/12/29 06:32:58;;;;;;;39.88;13.95;;;8.00;78.10;;;;;;5014405;28;20030;-27
2021/12/29 06:35:24;;;;;;;20.35;10.43;;;8.00;77.90;;;;;;5014342;28;20112;-24
2021/12/29 06:37:50;;;;;;;40.28;12.23;;;8.00;78.00;;;;;;5014297;28;20025;-24
2021/12/29 06:40:16;;;;;;;109.20;20.48;;;8.00;78.00;;;;;;5014487;28;20041;-25
2021/12/29 06:42:43;;;;;;;55.50;18.38;;;8.00;78.00;;;;;;5014433;28;20022;-26
2021/12/29 06:45:10;;;;;;;16.80;8.48;;;8.00;78.00;;;;;;5014485;28;20026;-26
2021/12/29 06:47:37;;;;;;;20.92;10.07;;;8.00;77.90;;;;;;5014332;28;20084;-24
2021/12/29 06:50:07;;;;;;;10.98;5.68;;;7.90;77.80;;;;;;5014197;28;20082;-24
2021/12/29 06:52:33;;;;;;;37.53;15.10;;;8.00;77.80;;;;;;5014161;28;20064;-25
2021/12/29 06:55:01;;;;;;;27.65;13.60;;;7.90;77.80;;;;;;5013972;28;20026;-25
2021/12/29 06:57:27;;;;;;;53.05;18.30;;;7.90;77.70;;;;;;5013910;28;20486;-26
2021/12/29 06:59:53;;;;;;;62.17;18.33;;;7.90;77.70;;;;;;5014042;28;20087;-24
2021/12/29 07:02:19;;;;;;;15.60;8.20;;;7.90;77.80;;;;;;5013024;28;20438;-25
2021/12/29 07:04:45;;;;;;;19.05;11.32;;;7.90;77.70;;;;;;5013819;28;20398;-24
2021/12/29 07:07:11;;;;;;;16.77;8.13;;;7.90;77.70;;;;;;5013810;28;20119;-24
2021/12/29 07:09:37;;;;;;;15.13;8.63;;;7.90;77.70;;;;;;5014090;28;20026;-26
2021/12/29 07:12:04;;;;;;;11.05;6.53;;;7.90;77.70;;;;;;5014380;28;20029;-26
2021/12/29 07:14:30;;;;;;;35.45;12.35;;;7.90;77.70;;;;;;5014033;28;20038;-25
2021/12/29 07:16:56;;;;;;;29.77;12.48;;;7.90;77.70;;;;;;5013869;28;20033;-26
2021/12/29 07:19:22;;;;;;;95.82;24.65;;;7.90;77.70;;;;;;5013595;28;20450;-25
2021/12/29 07:21:49;;;;;;;65.53;19.20;;;7.90;78.00;;;;;;5013599;28;20030;-25
2021/12/29 07:24:16;;;;;;;69.63;21.48;;;7.90;78.00;;;;;;5013644;28;20030;-25
2021/12/29 07:26:43;;;;;;;67.10;19.45;;;7.90;78.10;;;;;;5013267;28;20037;-24
2021/12/29 07:29:09;;;;;;;54.10;18.92;;;7.90;78.10;;;;;;5013840;28;20062;-24
2021/12/29 07:31:35;;;;;;;34.30;13.30;;;7.80;78.10;;;;;;5013625;28;20041;-25
2021/12/29 07:34:01;;;;;;;38.75;17.02;;;7.80;78.00;;;;;;5013738;28;20026;-25
2021/12/29 07:36:27;;;;;;;40.83;15.57;;;7.80;78.00;;;;;;5013420;28;20049;-24
2021/12/29 07:38:53;;;;;;;14.18;7.40;;;7.80;77.90;;;;;;5013711;28;20474;-26
2021/12/29 07:41:19;;;;;;;17.25;9.70;;;7.80;77.80;;;;;;5013613;28;20030;-26
2021/12/29 07:43:45;;;;;;;11.57;6.72;;;7.80;77.80;;;;;;5013678;28;20370;-24
2021/12/29 07:46:13;;;;;;;27.92;13.43;;;7.90;77.70;;;;;;5013227;28;20481;-26
2021/12/29 07:48:39;;;;;;;26.73;11.48;;;7.80;77.60;;;;;;5013164;28;20089;-25
2021/12/29 07:51:06;;;;;;;31.77;15.38;;;7.80;77.60;;;;;;5012567;28;20133;-25
2021/12/29 07:53:35;;;;;;;31.77;16.42;;;7.80;77.60;;;;;;5013565;28;20045;-26
2021/12/29 07:56:01;;;;;;;36.17;12.75;;;7.80;77.60;;;;;;5013718;28;20045;-25
2021/12/29 07:58:27;;;;;;;23.88;10.80;;;7.80;77.60;;;;;;5011824;28;20397;-27
2021/12/29 08:00:53;;;;;;;24.45;12.45;;;7.80;77.50;;;;;;5013135;28;20034;-25
2021/12/29 08:03:20;;;;;;;31.23;12.88;;;7.90;77.50;;;;;;5013176;28;20033;-26
2021/12/29 08:05:46;;;;;;;41.88;16.60;;;7.90;77.40;;;;;;5012102;28;20022;-24
2021/12/29 08:08:12;;;;;;;10.85;5.65;;;7.90;77.40;;;;;;5013455;28;20385;-24
2021/12/29 08:10:40;;;;;;;13.18;7.22;;;7.90;77.30;;;;;;5013095;28;20478;-24
2021/12/29 08:13:07;;;;;;;31.40;11.95;;;8.00;77.30;;;;;;5013341;28;20030;-26
2021/12/29 08:15:35;;;;;;;56.25;16.55;;;8.00;77.20;;;;;;5012858;28;20494;-25
2021/12/29 08:18:04;;;;;;;12.82;6.57;;;8.00;77.10;;;;;;5013014;28;20088;-27
2021/12/29 08:20:32;;;;;;;25.13;12.38;;;8.00;77.00;;;;;;5013359;28;20433;-27
2021/12/29 08:22:59;;;;;;;56.80;15.88;;;8.00;76.90;;;;;;5012960;28;20054;-24
2021/12/29 08:25:26;;;;;;;69.28;20.15;;;7.90;77.10;;;;;;5012938;28;20030;-23
2021/12/29 08:27:52;;;;;;;60.28;18.73;;;7.90;77.20;;;;;;5012894;28;20044;-24
2021/12/29 08:30:18;;;;;;;57.42;17.98;;;7.90;77.30;;;;;;5012557;28;20116;-26
2021/12/29 08:32:45;;;;;;;42.92;18.58;;;7.90;77.50;;;;;;5013176;28;20026;-26
2021/12/29 08:35:12;;;;;;;18.45;9.93;;;7.90;77.40;;;;;;5012797;28;20025;-24
2021/12/29 08:37:38;;;;;;;70.45;20.63;;;7.90;77.40;;;;;;5013180;28;20494;-24
2021/12/29 08:40:07;;;;;;;90.40;23.67;;;7.90;77.40;;;;;;5016720;28;20033;-25
2021/12/29 08:42:34;;;;;;;35.95;15.13;;;7.90;77.40;;;;;;5016364;28;20026;-25
2021/12/29 08:45:01;;;;;;;53.72;18.95;;;7.90;77.40;;;;;;5016356;28;20038;-27
2021/12/29 08:47:27;;;;;;;69.28;19.52;;;7.90;77.40;;;;;;5016694;28;20024;-25
2021/12/29 08:49:53;;;;;;;16.40;9.43;;;7.90;77.40;;;;;;5016266;28;20046;-25
2021/12/29 08:52:19;;;;;;;82.78;18.80;;;7.90;77.40;;;;;;5016082;28;20474;-26
2021/12/29 08:54:45;;;;;;;81.75;21.63;;;8.00;77.40;;;;;;5016719;28;20026;-25
2021/12/29 08:57:11;;;;;;;24.20;9.98;;;8.00;77.10;;;;;;5016434;28;20113;-26
2021/12/29 08:59:37;;;;;;;54.50;17.33;;;8.10;77.00;;;;;;5016378;28;20121;-25
2021/12/29 09:02:03;;;;;;;40.00;17.33;;;8.10;77.00;;;;;;5016123;28;20033;-27
2021/12/29 09:04:29;;;;;;;40.00;15.85;;;8.20;77.00;;;;;;5016165;28;20084;-25
2021/12/29 09:06:55;;;;;;;62.85;19.98;;;8.20;76.90;;;;;;5016294;28;20037;-25
2021/12/29 09:09:22;;;;;;;58.00;18.75;;;8.20;76.70;;;;;;5015967;28;20030;-24
2021/12/29 09:11:48;;;;;;;31.48;16.45;;;8.20;76.50;;;;;;5016231;28;20042;-25
2021/12/29 09:14:14;;;;;;;31.65;15.90;;;8.20;76.70;;;;;;5015768;28;20029;-25
2021/12/29 09:16:41;;;;;;;32.10;15.35;;;8.20;76.70;;;;;;5015942;28;20041;-25
2021/12/29 09:19:11;;;;;;;34.38;15.80;;;8.20;76.80;;;;;;5016506;28;20112;-25
2021/12/29 09:21:39;;;;;;;45.03;17.17;;;8.20;76.80;;;;;;5016085;28;20077;-25
2021/12/29 09:24:08;;;;;;;37.80;15.60;;;8.20;76.70;;;;;;5015666;28;20045;-26
2021/12/29 09:26:34;;;;;;;18.52;11.65;;;8.30;76.70;;;;;;5015786;28;20026;-26
2021/12/29 09:29:00;;;;;;;40.28;14.88;;;8.30;76.70;;;;;;5015709;28;20448;-24
2021/12/29 09:31:27;;;;;;;18.80;11.48;;;8.40;76.70;;;;;;5015837;28;20022;-26
2021/12/29 09:33:53;;;;;;;53.75;22.20;;;8.50;76.50;;;;;;5015514;28;20030;-25
2021/12/29 09:36:19;;;;;;;22.02;12.75;;;8.50;76.50;;;;;;5015616;28;20100;-25
2021/12/29 09:38:45;;;;;;;44.03;17.33;;;8.60;76.30;;;;;;5015640;28;20430;-25
2021/12/29 09:41:15;;;;;;;20.35;12.38;;;8.60;76.00;;;;;;5015407;28;20032;-24
2021/12/29 09:43:43;;;;;;;26.88;14.20;;;8.60;76.10;;;;;;5015349;28;20022;-25
2021/12/29 09:46:10;;;;;;;15.30;8.68;;;8.70;76.10;;;;;;5015510;28;20042;-25
2021/12/29 09:48:37;;;;;;;30.00;17.83;;;8.70;76.10;;;;;;5014803;28;20133;-26
2021/12/29 09:51:07;;;;;;;36.35;20.80;;;8.80;76.10;;;;;;5015626;28;20049;-24
2021/12/29 09:53:34;;;;;;;25.67;15.82;;;8.80;76.10;;;;;;5015536;28;20026;-26
2021/12/29 09:56:00;;;;;;;27.58;15.57;;;8.90;76.00;;;;;;5015094;28;20482;-24
2021/12/29 09:58:26;;;;;;;23.77;12.88;;;8.90;75.90;;;;;;5015058;28;20042;-24
2021/12/29 10:00:56;;;;;;;15.18;9.27;;;8.90;75.80;;;;;;5015460;28;20022;-24
2021/12/29 10:03:25;;;;;;;20.33;10.60;;;9.00;75.80;;;;;;5015421;28;20033;-26
2021/12/29 10:05:55;;;;;;;18.10;11.35;;;9.10;75.80;;;;;;5015407;28;20018;-23
2021/12/29 10:08:35;;;;;;;29.25;15.30;;;9.30;75.70;;;;;;5014873;28;20026;-25
2021/12/29 10:11:08;;;;;;;29.67;16.30;;;9.30;75.60;;;;;;5014942;28;20045;-24
2021/12/29 10:13:38;;;;;;;34.83;20.27;;;9.40;75.30;;;;;;5014849;28;20083;-26
2021/12/29 10:16:05;;;;;;;32.63;18.65;;;9.50;75.20;;;;;;5014766;28;20494;-24
2021/12/29 10:18:33;;;;;;;45.00;24.05;;;9.50;75.00;;;;;;5014596;28;20498;-24
2021/12/29 10:21:04;;;;;;;31.17;16.35;;;9.60;74.80;;;;;;5014995;28;20026;-24
2021/12/29 10:23:37;;;;;;;30.30;16.35;;;9.70;74.80;;;;;;5015328;28;20057;-27
2021/12/29 10:26:16;;;;;;;24.47;13.97;;;9.80;74.50;;;;;;5013439;28;20096;-24
2021/12/29 10:28:49;;;;;;;45.33;24.30;;;9.90;74.40;;;;;;5014565;28;20025;-24
2021/12/29 10:31:25;;;;;;;34.42;19.52;;;10.00;74.30;;;;;;5014583;28;20034;-25
2021/12/29 10:33:53;;;;;;;22.15;12.20;;;10.00;74.20;;;;;;5014852;28;20026;-24
2021/12/29 10:36:27;;;;;;;27.85;16.30;;;10.10;74.10;;;;;;5014238;28;20032;-24
2021/12/29 10:39:07;;;;;;;38.58;22.02;;;10.20;74.10;;;;;;5015055;28;20531;-24
2021/12/29 10:42:02;;;;;;;37.78;21.42;;;10.30;73.50;;;;;;5014362;28;20041;-25
2021/12/29 10:44:39;;;;;;;45.80;26.63;;;10.40;73.50;;;;;;5014067;28;20022;-25
2021/12/29 10:47:23;;;;;;;25.05;14.77;;;10.40;72.80;;;;;;5014361;28;20092;-25
2021/12/29 10:50:09;;;;;;;33.28;19.20;;;10.40;73.10;;;;;;5014150;28;20042;-26
2021/12/29 10:52:40;;;;;;;26.00;14.55;;;10.50;73.00;;;;;;5013956;28;20033;-24
2021/12/29 10:55:11;;;;;;;35.58;20.20;;;10.50;73.10;;;;;;5014345;28;20018;-24
2021/12/29 10:57:37;;;;;;;39.03;22.83;;;10.60;73.00;;;;;;5014151;28;20470;-24
2021/12/29 11:00:08;;;;;;;32.08;19.75;;;10.70;72.70;;;;;;5014418;28;20377;-24
2021/12/29 11:02:35;;;;;;;34.28;21.00;;;10.90;72.90;;;;;;5013786;28;20040;-24
2021/12/29 11:05:06;;;;;;;38.20;21.42;;;11.00;72.70;;;;;;5013854;28;20056;-25
2021/12/29 11:07:34;;;;;;;41.05;24.73;;;11.10;72.10;;;;;;5013838;28;20064;-24
2021/12/29 11:10:18;;;;;;;29.08;17.63;;;11.30;71.20;;;;;;5013761;28;20041;-26
2021/12/29 11:12:56;;;;;;;60.28;36.42;;;11.50;71.20;;;;;;5013625;28;20454;-25
2021/12/29 11:15:25;;;;;;;47.35;27.10;;;11.60;70.60;;;;;;5013928;28;20367;-26
2021/12/29 11:17:52;;;;;;;35.90;20.42;;;11.70;70.20;;;;;;5013717;28;20030;-26
2021/12/29 11:20:23;;;;;;;36.83;21.30;;;11.80;70.60;;;;;;5013756;28;20084;-25
2021/12/29 11:22:51;;;;;;;44.45;26.77;;;11.90;70.60;;;;;;5013689;28;20520;-24
2021/12/29 11:25:31;;;;;;;57.60;34.38;;;12.10;69.90;;;;;;5013672;28;20032;-24
2021/12/29 11:27:57;;;;;;;54.05;32.25;;;12.40;69.70;;;;;;5014042;28;20064;-24
2021/12/29 11:30:24;;;;;;;35.47;21.05;;;12.60;69.20;;;;;;5013558;28;20033;-26
2021/12/29 11:32:50;;;;;;;37.95;22.42;;;12.70;69.00;;;;;;5013727;28;20060;-23
2021/12/29 11:35:23;;;;;;;39.08;22.67;;;13.00;68.40;;;;;;5013819;28;20022;-25
2021/12/29 11:37:53;;;;;;;30.00;18.15;;;13.30;68.20;;;;;;5013760;28;20076;-24
2021/12/29 11:40:24;;;;;;;69.30;41.72;;;13.60;67.50;;;;;;5013211;28;20030;-24
2021/12/29 11:42:51;;;;;;;53.72;32.17;;;13.90;66.40;;;;;;5013723;28;20033;-25
2021/12/29 11:45:18;;;;;;;42.05;25.02;;;14.20;66.20;;;;;;5013286;28;20409;-24
2021/12/29 11:47:45;;;;;;;39.28;22.65;;;14.50;65.40;;;;;;5013374;28;20025;-25
2021/12/29 11:50:16;;;;;;;48.38;29.75;;;14.80;65.40;;;;;;5013340;28;20034;-25
2021/12/29 11:53:17;;;;;;;37.25;21.90;;;15.00;64.90;;;;;;5013988;28;20109;-24
2021/12/29 11:55:46;;;;;;;49.95;30.25;;;15.30;63.90;;;;;;5012975;28;20038;-25
2021/12/29 11:58:29;;;;;;;35.85;21.60;;;15.50;63.80;;;;;;5013083;28;20033;-24
2021/12/29 12:01:23;;;;;;;29.10;18.13;;;15.70;61.80;;;;;;5013427;28;20351;-24
2021/12/29 12:03:51;;;;;;;43.78;25.35;;;15.90;60.10;;;;;;5012930;28;20046;-25
2021/12/29 12:06:25;;;;;;;35.15;21.13;;;15.90;61.20;;;;;;5012915;28;20426;-25
2021/12/29 12:09:25;;;;;;;45.13;27.88;;;16.00;61.80;;;;;;5013646;28;20026;-23
2021/12/29 12:11:51;;;;;;;30.98;19.30;;;15.90;59.20;;;;;;4991476;28;20041;-24
2021/12/29 12:14:26;;;;;;;32.08;19.98;;;15.90;61.30;;;;;;4994374;28;20035;-26
2021/12/29 12:17:14;;;;;;;28.10;17.25;;;15.90;61.00;;;;;;4995733;28;20605;-24
2021/12/29 12:19:41;;;;;;;27.17;16.30;;;15.80;61.50;;;;;;4995453;28;20034;-24
2021/12/29 12:22:14;;;;;;;37.80;23.23;;;15.90;61.80;;;;;;4995889;28;20169;-24
2021/12/29 12:25:04;;;;;;;37.67;22.88;;;15.80;61.40;;;;;;4979094;28;20569;-25
2021/12/29 12:27:44;;;;;;;38.08;23.25;;;15.80;61.90;;;;;;4995159;28;20023;-24
2021/12/29 12:30:16;;;;;;;21.00;13.00;;;15.80;61.50;;;;;;4995119;28;20049;-24
2021/12/29 12:32:49;;;;;;;31.33;20.23;;;15.80;62.10;;;;;;4995006;28;20027;-24
2021/12/29 12:35:26;;;;;;;32.90;20.38;;;15.70;62.20;;;;;;4995130;28;20030;-25
2021/12/29 12:37:53;;;;;;;26.05;16.23;;;15.60;62.00;;;;;;4995036;28;20039;-24
2021/12/29 12:40:26;;;;;;;34.25;21.52;;;15.40;62.40;;;;;;4994739;28;20109;-23
2021/12/29 12:43:07;;;;;;;;;;;15.40;62.60;;;;;;4995750;28;20434;-23
2021/12/29 12:45:36;;;;;;;26.98;15.85;;;15.20;61.30;;;;;;4994822;28;19913;-24
2021/12/29 12:48:05;;;;;;;31.75;19.33;;;15.10;62.80;;;;;;5004304;28;20494;-24